createdAt,value
2018-09-30T00:00:47.541Z,1.40
2018-09-30T00:03:15.763Z,1.40
2018-09-30T00:05:43.939Z,1.50
2018-09-30T00:08:13.064Z,1.45
2018-09-30T00:10:41.378Z,1.20
2018-09-30T00:13:09.589Z,1.50
2018-09-30T00:15:37.789Z,1.60
2018-09-30T00:18:05.943Z,1.30
2018-09-30T00:20:34.204Z,1.17
2018-09-30T00:23:02.408Z,1.50
2018-09-30T00:26:39.923Z,1.17
2018-09-30T00:29:08.140Z,1.42
2018-09-30T00:31:36.442Z,1.27
2018-09-30T00:34:10.232Z,1.35
2018-09-30T00:36:38.605Z,1.35
2018-09-30T00:39:06.844Z,1.30
2018-09-30T00:41:35.016Z,1.20
2018-09-30T00:44:03.211Z,1.02
2018-09-30T00:46:32.204Z,1.20
2018-09-30T00:49:00.436Z,1.00
2018-09-30T00:51:28.679Z,1.10
2018-09-30T00:53:56.917Z,1.17
2018-09-30T00:56:25.511Z,1.33
2018-09-30T00:58:53.701Z,1.30
2018-09-30T01:03:56.470Z,1.17
2018-09-30T01:06:24.807Z,1.07
2018-09-30T01:08:53.024Z,1.57
2018-09-30T01:11:21.506Z,1.30
2018-09-30T01:13:49.682Z,1.30
2018-09-30T01:16:17.887Z,1.40
2018-09-30T01:18:46.900Z,1.10
2018-09-30T01:21:15.140Z,1.47
2018-09-30T01:23:43.345Z,1.32
2018-09-30T01:26:11.549Z,1.05
2018-09-30T01:28:40.542Z,1.57
2018-09-30T01:31:08.741Z,1.00
2018-09-30T01:33:36.906Z,1.00
2018-09-30T01:36:05.131Z,1.10
2018-09-30T01:38:34.359Z,1.12
2018-09-30T01:41:02.553Z,1.20
2018-09-30T01:43:30.790Z,1.12
2018-09-30T01:45:59.002Z,1.17
2018-09-30T01:48:28.788Z,1.55
2018-09-30T01:50:56.986Z,1.07
2018-09-30T01:53:25.209Z,1.15
2018-09-30T01:55:53.391Z,0.93
2018-09-30T01:58:21.608Z,1.10
2018-09-30T02:00:49.836Z,1.30
2018-09-30T02:03:18.127Z,1.12
2018-09-30T02:05:46.354Z,1.10
2018-09-30T02:08:14.551Z,1.25
2018-09-30T02:10:46.516Z,1.10
2018-09-30T02:13:14.717Z,0.98
2018-09-30T02:15:42.928Z,1.12
2018-09-30T02:18:11.131Z,1.15
2018-09-30T02:20:40.224Z,1.10
2018-09-30T02:23:08.496Z,1.17
2018-09-30T02:25:36.673Z,1.20
2018-09-30T02:28:04.880Z,1.25
2018-09-30T02:30:33.059Z,1.17
2018-09-30T02:33:02.243Z,1.10
2018-09-30T02:35:30.477Z,1.00
2018-09-30T02:37:58.687Z,1.10
2018-09-30T02:40:26.899Z,1.37
2018-09-30T02:42:55.104Z,1.40
2018-09-30T02:45:23.279Z,0.95
2018-09-30T02:47:52.044Z,1.30
2018-09-30T02:50:20.257Z,1.42
2018-09-30T02:52:49.281Z,1.00
2018-09-30T02:55:17.485Z,1.00
2018-09-30T02:57:45.687Z,1.40
2018-09-30T03:00:13.880Z,1.52
2018-09-30T03:02:42.189Z,1.37
2018-09-30T03:05:10.498Z,1.20
2018-09-30T03:07:44.051Z,1.27
2018-09-30T03:10:12.278Z,1.35
2018-09-30T03:12:40.411Z,1.20
2018-09-30T03:15:09.249Z,1.47
2018-09-30T03:17:37.456Z,1.60
2018-09-30T03:20:05.705Z,1.45
2018-09-30T03:22:33.900Z,1.32
2018-09-30T03:25:02.087Z,1.25
2018-09-30T03:27:30.287Z,1.60
2018-09-30T03:29:58.491Z,1.60
2018-09-30T03:32:26.775Z,1.40
2018-09-30T03:34:55.925Z,1.30
2018-09-30T03:37:24.138Z,1.13
2018-09-30T03:39:52.341Z,1.45
2018-09-30T03:42:20.536Z,1.50
2018-09-30T03:44:51.524Z,1.30
2018-09-30T03:47:19.730Z,1.50
2018-09-30T03:49:47.953Z,1.30
2018-09-30T03:52:16.176Z,1.47
2018-09-30T03:54:44.454Z,1.40
2018-09-30T03:57:13.969Z,1.22
2018-09-30T03:59:42.626Z,1.02
2018-09-30T04:02:10.841Z,1.03
2018-09-30T04:04:39.079Z,1.55
2018-09-30T04:07:07.349Z,1.30
2018-09-30T04:09:35.608Z,1.45
2018-09-30T04:12:03.865Z,1.20
2018-09-30T04:14:32.277Z,1.17
2018-09-30T04:17:00.567Z,1.30
2018-09-30T04:19:28.774Z,1.17
2018-09-30T04:21:56.966Z,1.10
2018-09-30T04:24:25.175Z,1.15
2018-09-30T04:26:54.524Z,1.50
2018-09-30T04:29:25.216Z,1.25
2018-09-30T04:31:53.480Z,1.47
2018-09-30T04:34:21.706Z,1.47
2018-09-30T04:36:49.906Z,1.20
2018-09-30T04:39:19.072Z,1.30
2018-09-30T04:41:47.293Z,1.10
2018-09-30T04:44:15.453Z,1.15
2018-09-30T04:46:43.674Z,1.50
2018-09-30T04:49:11.892Z,1.00
2018-09-30T04:51:40.133Z,1.10
2018-09-30T04:54:08.330Z,1.20
2018-09-30T04:56:36.519Z,1.33
2018-09-30T04:59:04.781Z,1.30
2018-09-30T05:01:33.003Z,1.20
2018-09-30T05:04:01.227Z,1.30
2018-09-30T05:06:36.166Z,1.00
2018-09-30T05:09:05.640Z,1.20
2018-09-30T05:11:33.906Z,1.05
2018-09-30T05:14:02.110Z,0.90
2018-09-30T05:16:30.375Z,1.43
2018-09-30T05:18:58.518Z,1.30
2018-09-30T05:21:26.745Z,1.10
2018-09-30T05:23:55.656Z,1.32
2018-09-30T05:26:23.843Z,1.20
2018-09-30T05:28:52.031Z,1.15
2018-09-30T05:31:20.253Z,1.23
2018-09-30T05:33:49.329Z,1.10
2018-09-30T05:36:17.511Z,1.10
2018-09-30T05:38:45.707Z,1.17
2018-09-30T05:41:14.258Z,1.30
2018-09-30T05:43:42.480Z,1.10
2018-09-30T05:46:10.648Z,1.10
2018-09-30T05:48:38.876Z,0.98
2018-09-30T05:51:10.302Z,1.20
2018-09-30T05:53:38.488Z,1.20
2018-09-30T05:56:06.698Z,1.20
2018-09-30T05:58:34.890Z,1.55
2018-09-30T06:01:03.093Z,1.13
2018-09-30T06:03:31.304Z,1.12
2018-09-30T06:05:59.523Z,1.32
2018-09-30T06:08:27.755Z,1.07
2018-09-30T06:10:55.946Z,1.30
2018-09-30T06:13:24.169Z,1.30
2018-09-30T06:15:52.416Z,1.10
2018-09-30T06:18:20.602Z,1.30
2018-09-30T06:20:48.799Z,1.20
2018-09-30T06:23:18.208Z,1.60
2018-09-30T06:25:46.405Z,1.50
2018-09-30T06:28:14.697Z,1.80
2018-09-30T06:30:43.135Z,1.70
2018-09-30T06:33:13.776Z,1.22
2018-09-30T06:35:42.082Z,1.60
2018-09-30T06:38:10.288Z,1.45
2018-09-30T06:40:38.458Z,1.07
2018-09-30T06:43:06.683Z,1.22
2018-09-30T06:45:35.056Z,1.57
2018-09-30T06:48:03.419Z,1.15
2018-09-30T06:50:32.134Z,1.30
2018-09-30T06:53:00.498Z,1.20
2018-09-30T06:55:28.751Z,1.05
2018-09-30T06:57:56.988Z,1.40
2018-09-30T07:00:25.188Z,1.47
2018-09-30T07:02:53.620Z,1.20
2018-09-30T07:05:22.142Z,1.10
2018-09-30T07:07:50.302Z,1.10
2018-09-30T07:10:18.463Z,1.05
2018-09-30T07:12:48.080Z,1.30
2018-09-30T07:15:16.295Z,1.20
2018-09-30T07:17:45.279Z,1.02
2018-09-30T07:20:13.532Z,1.30
2018-09-30T07:22:41.756Z,1.35
2018-09-30T07:25:09.930Z,1.10
2018-09-30T07:27:39.215Z,1.15
2018-09-30T07:30:08.367Z,1.10
2018-09-30T07:32:36.590Z,0.88
2018-09-30T07:35:04.780Z,1.62
2018-09-30T07:37:35.862Z,1.95
2018-09-30T07:40:04.112Z,1.70
2018-09-30T07:42:32.303Z,1.60
2018-09-30T07:45:07.067Z,1.60
2018-09-30T07:47:35.296Z,1.40
2018-09-30T07:50:03.527Z,1.25
2018-09-30T07:52:31.746Z,1.60
2018-09-30T07:54:59.977Z,1.70
2018-09-30T07:57:29.965Z,1.90
2018-09-30T07:59:58.560Z,1.10
2018-09-30T08:02:26.779Z,1.37
2018-09-30T08:04:55.012Z,1.90
2018-09-30T08:07:26.236Z,1.67
2018-09-30T08:09:59.180Z,1.23
2018-09-30T08:12:27.459Z,1.60
2018-09-30T08:14:55.682Z,1.40
2018-09-30T08:17:24.207Z,1.00
2018-09-30T08:19:53.171Z,1.10
2018-09-30T08:22:21.351Z,0.97
2018-09-30T08:24:49.540Z,1.10
2018-09-30T08:27:17.739Z,1.00
2018-09-30T08:29:46.849Z,1.00
2018-09-30T08:32:15.976Z,1.17
2018-09-30T08:34:44.169Z,1.40
2018-09-30T08:37:12.447Z,1.40
2018-09-30T08:39:40.702Z,1.40
2018-09-30T08:42:08.851Z,1.20
2018-09-30T08:44:37.113Z,1.13
2018-09-30T08:47:05.301Z,0.93
2018-09-30T08:49:37.336Z,1.30
2018-09-30T08:52:05.531Z,1.00
2018-09-30T08:54:33.748Z,1.40
2018-09-30T08:57:01.995Z,1.10
2018-09-30T08:59:31.340Z,1.03
2018-09-30T09:01:59.579Z,1.60
2018-09-30T09:04:28.889Z,1.30
2018-09-30T09:06:57.078Z,1.33
2018-09-30T09:09:25.276Z,1.40
2018-09-30T09:11:53.941Z,1.23
2018-09-30T09:14:22.184Z,1.30
2018-09-30T09:16:50.446Z,1.40
2018-09-30T09:19:18.667Z,1.20
2018-09-30T09:21:46.828Z,1.70
2018-09-30T09:24:15.032Z,1.20
2018-09-30T09:26:43.241Z,1.00
2018-09-30T09:29:11.500Z,1.10
2018-09-30T09:31:41.930Z,1.23
2018-09-30T09:34:10.203Z,1.10
2018-09-30T09:36:38.419Z,1.40
2018-09-30T09:39:08.737Z,1.30
2018-09-30T09:41:37.404Z,1.27
2018-09-30T09:44:07.042Z,1.30
2018-09-30T09:46:35.214Z,1.40
2018-09-30T09:49:05.016Z,1.30
2018-09-30T09:51:33.294Z,1.27
2018-09-30T09:54:03.977Z,1.10
2018-09-30T09:56:32.170Z,1.20
2018-09-30T09:59:00.381Z,0.90
2018-09-30T10:01:28.558Z,1.27
2018-09-30T10:03:57.632Z,1.23
2018-09-30T10:06:25.822Z,1.10
2018-09-30T10:08:54.098Z,0.90
2018-09-30T10:11:22.320Z,1.10
2018-09-30T10:13:50.632Z,1.00
2018-09-30T10:16:18.883Z,0.90
2018-09-30T10:18:47.110Z,1.13
2018-09-30T10:21:15.287Z,1.13
2018-09-30T10:23:43.488Z,1.00
2018-09-30T10:26:12.637Z,1.00
2018-09-30T10:28:40.788Z,1.10
2018-09-30T10:31:09.077Z,0.80
2018-09-30T10:33:37.555Z,0.97
2018-09-30T10:36:05.749Z,0.80
2018-09-30T10:38:34.007Z,1.13
2018-09-30T10:41:02.151Z,1.20
2018-09-30T10:43:30.364Z,0.80
2018-09-30T10:45:59.491Z,1.10
2018-09-30T10:48:27.770Z,1.00
2018-09-30T10:51:59.061Z,0.90
2018-09-30T10:54:27.244Z,0.97
2018-09-30T10:56:55.872Z,1.10
2018-09-30T10:59:25.561Z,0.67
2018-09-30T11:02:02.040Z,1.00
2018-09-30T11:04:30.273Z,1.40
2018-09-30T11:06:58.503Z,1.07
2018-09-30T11:09:26.696Z,1.10
2018-09-30T11:11:57.423Z,1.00
2018-09-30T11:14:25.672Z,1.10
2018-09-30T11:16:53.874Z,1.07
2018-09-30T11:19:22.200Z,1.00
2018-09-30T11:21:50.449Z,1.33
2018-09-30T11:24:18.652Z,1.33
2018-09-30T11:26:46.835Z,0.97
2018-09-30T11:29:15.671Z,0.90
2018-09-30T11:31:43.992Z,1.20
2018-09-30T11:34:13.936Z,1.00
2018-09-30T11:36:42.155Z,1.30
2018-09-30T11:39:11.699Z,1.00
2018-09-30T11:41:40.593Z,1.17
2018-09-30T11:44:10.228Z,1.00
2018-09-30T11:46:38.585Z,1.03
2018-09-30T11:49:07.548Z,1.07
2018-09-30T11:51:35.796Z,1.27
2018-09-30T11:54:05.141Z,1.30
2018-09-30T11:56:33.823Z,1.43
2018-09-30T11:59:02.074Z,1.53
2018-09-30T12:01:30.238Z,1.47
2018-09-30T12:03:58.931Z,0.87
2018-09-30T12:06:27.400Z,1.17
2018-09-30T12:08:55.602Z,1.13
2018-09-30T12:11:23.855Z,1.20
2018-09-30T12:13:52.103Z,1.10
2018-09-30T12:16:21.717Z,1.23
2018-09-30T12:18:49.995Z,0.90
2018-09-30T12:21:19.349Z,1.40
2018-09-30T12:23:47.578Z,1.60
2018-09-30T12:29:05.764Z,0.87
2018-09-30T12:31:33.987Z,1.60
2018-09-30T12:34:02.205Z,1.20
2018-09-30T12:36:31.229Z,1.30
2018-09-30T12:38:59.390Z,1.17
2018-09-30T12:41:27.588Z,1.27
2018-09-30T12:43:55.752Z,1.23
2018-09-30T12:46:24.768Z,1.37
2018-09-30T12:48:52.999Z,1.77
2018-09-30T12:51:21.216Z,1.20
2018-09-30T12:53:49.411Z,1.70
2018-09-30T12:56:18.826Z,1.53
2018-09-30T12:58:47.029Z,1.80
2018-09-30T13:01:15.288Z,1.10
2018-09-30T13:03:44.026Z,1.30
2018-09-30T13:06:15.587Z,1.07
2018-09-30T13:08:44.000Z,1.40
2018-09-30T13:11:12.204Z,1.53
2018-09-30T13:13:41.618Z,1.60
2018-09-30T13:16:10.018Z,1.80
2018-09-30T13:18:39.379Z,2.00
2018-09-30T13:21:07.567Z,1.63
2018-09-30T13:23:35.784Z,1.33
2018-09-30T13:26:03.988Z,2.13
2018-09-30T13:28:34.284Z,1.80
2018-09-30T13:31:02.481Z,2.17
2018-09-30T13:33:30.869Z,1.97
2018-09-30T13:35:58.988Z,1.97
2018-09-30T13:38:27.478Z,1.70
2018-09-30T13:40:55.842Z,1.87
2018-09-30T13:43:23.961Z,1.70
2018-09-30T13:45:53.590Z,1.77
2018-09-30T13:48:21.862Z,1.43
2018-09-30T13:50:50.052Z,1.50
2018-09-30T13:53:18.247Z,1.63
2018-09-30T13:55:46.455Z,1.80
2018-09-30T13:58:16.905Z,1.77
2018-09-30T14:00:48.835Z,1.37
2018-09-30T14:03:17.014Z,1.77
2018-09-30T14:05:45.214Z,1.47
2018-09-30T14:08:13.468Z,2.13
2018-09-30T14:10:43.172Z,1.60
2018-09-30T14:13:12.037Z,1.60
2018-09-30T14:15:40.327Z,1.50
2018-09-30T14:18:09.512Z,1.67
2018-09-30T14:20:38.730Z,1.40
2018-09-30T14:23:06.971Z,1.50
2018-09-30T14:25:35.155Z,1.50
2018-09-30T14:28:03.361Z,1.40
2018-09-30T14:30:32.889Z,1.50
2018-09-30T14:33:01.077Z,1.40
2018-09-30T14:35:29.308Z,2.10
2018-09-30T14:37:57.583Z,1.60
2018-09-30T14:40:27.140Z,1.30
2018-09-30T14:42:55.544Z,1.13
2018-09-30T14:45:23.726Z,1.40
2018-09-30T14:47:51.932Z,1.40
2018-09-30T14:50:20.123Z,1.13
2018-09-30T14:55:24.226Z,1.20
2018-09-30T14:57:52.408Z,1.27
2018-09-30T15:00:20.628Z,1.17
2018-09-30T15:02:50.995Z,1.40
2018-09-30T15:05:19.200Z,1.77
2018-09-30T15:07:47.435Z,0.90
2018-09-30T15:10:15.648Z,1.20
2018-09-30T15:12:45.105Z,1.20
2018-09-30T15:15:13.274Z,1.27
2018-09-30T15:17:41.479Z,1.53
2018-09-30T15:20:09.651Z,1.30
2018-09-30T15:22:37.868Z,1.23
2018-09-30T15:25:06.094Z,1.40
2018-09-30T15:27:35.112Z,1.40
2018-09-30T15:30:03.340Z,1.30
2018-09-30T15:32:36.570Z,1.13
2018-09-30T15:35:04.792Z,1.10
2018-09-30T15:37:33.040Z,1.60
2018-09-30T15:40:01.288Z,1.13
2018-09-30T15:42:29.581Z,1.57
2018-09-30T15:45:01.316Z,1.10
2018-09-30T15:47:29.496Z,1.03
2018-09-30T15:49:57.673Z,1.20
2018-09-30T15:52:25.996Z,1.23
2018-09-30T15:54:56.173Z,1.33
2018-09-30T15:57:24.340Z,1.43
2018-09-30T15:59:53.046Z,1.10
2018-09-30T16:02:21.276Z,1.20
2018-09-30T16:04:51.052Z,1.00
2018-09-30T16:07:19.273Z,1.70
2018-09-30T16:09:47.470Z,1.40
2018-09-30T16:12:15.660Z,1.30
2018-09-30T16:14:45.492Z,0.87
2018-09-30T16:17:13.668Z,1.13
2018-09-30T16:19:41.891Z,1.60
2018-09-30T16:22:10.083Z,1.30
2018-09-30T16:24:39.875Z,1.07
2018-09-30T16:27:08.067Z,1.10
2018-09-30T16:29:36.375Z,0.93
2018-09-30T16:32:04.546Z,1.10
2018-09-30T16:34:33.144Z,1.03
2018-09-30T16:37:03.584Z,1.17
2018-09-30T16:39:31.836Z,1.07
2018-09-30T16:42:00.026Z,0.90
2018-09-30T16:44:28.357Z,0.90
2018-09-30T16:46:56.688Z,1.20
2018-09-30T16:49:24.929Z,1.17
2018-09-30T16:51:53.141Z,1.00
2018-09-30T16:54:21.321Z,1.20
2018-09-30T16:56:49.564Z,1.10
2018-09-30T16:59:17.948Z,0.90
2018-09-30T17:01:46.213Z,0.77
2018-09-30T17:04:14.453Z,1.07
2018-09-30T17:06:44.638Z,1.10
2018-09-30T17:09:12.826Z,0.83
2018-09-30T17:11:41.055Z,0.90
2018-09-30T17:14:09.289Z,0.80
2018-09-30T17:16:37.479Z,1.00
2018-09-30T17:19:05.695Z,1.10
2018-09-30T17:21:33.957Z,0.83
2018-09-30T17:24:02.157Z,1.07
2018-09-30T17:26:30.342Z,1.13
2018-09-30T17:28:58.596Z,1.20
2018-09-30T17:31:26.844Z,1.10
2018-09-30T17:33:55.028Z,0.93
2018-09-30T17:36:23.251Z,1.13
2018-09-30T17:38:53.665Z,1.00
2018-09-30T17:41:21.862Z,1.00
2018-09-30T17:43:50.107Z,0.97
2018-09-30T17:46:18.315Z,1.00
2018-09-30T17:48:46.506Z,1.10
2018-09-30T17:51:15.567Z,1.23
2018-09-30T17:53:43.742Z,1.30
2018-09-30T17:56:12.252Z,1.10
2018-09-30T17:58:40.494Z,0.70
2018-09-30T18:01:15.659Z,1.33
2018-09-30T18:03:43.835Z,1.20
2018-09-30T18:06:12.054Z,1.30
2018-09-30T18:08:41.201Z,1.30
2018-09-30T18:11:10.713Z,1.00
2018-09-30T18:13:38.841Z,1.07
2018-09-30T18:16:07.598Z,1.40
2018-09-30T18:18:35.813Z,1.37
2018-09-30T18:21:04.598Z,1.40
2018-09-30T18:23:32.844Z,0.90
2018-09-30T18:26:01.019Z,1.10
2018-09-30T18:28:29.232Z,1.20
2018-09-30T18:30:58.848Z,1.20
2018-09-30T18:33:27.006Z,0.80
2018-09-30T18:35:55.204Z,1.07
2018-09-30T18:38:23.477Z,1.13
2018-09-30T18:40:52.034Z,1.33
2018-09-30T18:43:20.935Z,1.67
2018-09-30T18:45:49.153Z,1.50
2018-09-30T18:48:17.353Z,1.70
2018-09-30T18:50:45.514Z,1.63
2018-09-30T18:53:14.470Z,1.80
2018-09-30T18:55:42.830Z,1.43
2018-09-30T18:58:11.034Z,1.67
2018-09-30T19:00:39.227Z,1.37
2018-09-30T19:03:09.633Z,1.70
2018-09-30T19:05:37.830Z,1.47
2018-09-30T19:08:06.104Z,2.13
2018-09-30T19:10:34.347Z,1.60
2018-09-30T19:13:03.020Z,1.83
2018-09-30T19:15:31.237Z,1.50
2018-09-30T19:17:59.415Z,1.70
2018-09-30T19:20:27.600Z,1.50
2018-09-30T19:23:10.790Z,1.63
2018-09-30T19:25:39.910Z,1.83
2018-09-30T19:28:08.240Z,1.60
2018-09-30T19:30:36.524Z,1.93
2018-09-30T19:33:07.795Z,1.53
2018-09-30T19:35:36.306Z,1.50
2018-09-30T19:38:04.484Z,1.60
2018-09-30T19:40:32.711Z,1.60
2018-09-30T19:43:00.902Z,1.50
2018-09-30T19:45:30.424Z,1.70
2018-09-30T19:47:59.477Z,1.90
2018-09-30T19:50:27.752Z,2.00
2018-09-30T19:52:55.930Z,1.20
2018-09-30T19:55:25.060Z,1.97
2018-09-30T19:57:53.233Z,2.10
2018-09-30T20:00:21.475Z,2.27
2018-09-30T20:02:49.718Z,2.63
2018-09-30T20:05:17.898Z,2.40
2018-09-30T20:07:46.091Z,1.90
2018-09-30T20:10:14.306Z,2.33
2018-09-30T20:12:42.593Z,2.60
2018-09-30T20:15:12.708Z,2.43
2018-09-30T20:17:40.940Z,2.07
2018-09-30T20:20:09.151Z,2.37
2018-09-30T20:22:37.400Z,2.73
2018-09-30T20:25:05.688Z,2.20
2018-09-30T20:27:33.840Z,2.47
2018-09-30T20:30:02.077Z,3.20
2018-09-30T20:32:30.289Z,3.20
2018-09-30T20:34:58.518Z,2.80
2018-09-30T20:37:29.657Z,2.70
2018-09-30T20:39:57.892Z,3.00
2018-09-30T20:42:26.137Z,2.30
2018-09-30T20:44:54.341Z,2.20
2018-09-30T20:47:23.556Z,2.17
2018-09-30T20:49:51.772Z,2.23
2018-09-30T20:52:19.957Z,2.27
2018-09-30T20:54:48.150Z,2.60
2018-09-30T20:57:17.783Z,2.80
2018-09-30T20:59:47.011Z,2.30
2018-09-30T21:02:15.200Z,2.23
2018-09-30T21:04:43.444Z,2.27
2018-09-30T21:07:11.696Z,2.67
2018-09-30T21:09:40.810Z,2.27
2018-09-30T21:12:08.986Z,2.60
2018-09-30T21:14:37.146Z,2.67
2018-09-30T21:17:06.881Z,2.20
2018-09-30T21:19:35.125Z,2.50
2018-09-30T21:22:03.348Z,2.40
2018-09-30T21:24:31.675Z,2.43
2018-09-30T21:27:06.603Z,2.60
2018-09-30T21:29:36.892Z,2.30
2018-09-30T21:32:05.120Z,1.97
2018-09-30T21:34:33.323Z,2.52
2018-09-30T21:37:01.536Z,2.60
2018-09-30T21:39:29.775Z,2.80
2018-09-30T21:41:57.949Z,2.20
2018-09-30T21:44:26.203Z,2.53
2018-09-30T21:46:54.443Z,2.63
2018-09-30T21:49:24.734Z,3.00
2018-09-30T21:51:52.956Z,3.00
2018-09-30T21:54:21.142Z,3.00
2018-09-30T21:56:49.342Z,2.58
2018-09-30T21:59:18.289Z,3.17
2018-09-30T22:01:47.430Z,2.80
2018-09-30T22:04:15.591Z,2.62
2018-09-30T22:06:43.783Z,2.70
2018-09-30T22:09:18.767Z,2.20
2018-09-30T22:11:46.939Z,2.70
2018-09-30T22:14:15.164Z,2.75
2018-09-30T22:16:43.367Z,2.27
2018-09-30T22:19:11.577Z,2.30
2018-09-30T22:21:39.787Z,3.15
2018-09-30T22:24:08.137Z,2.33
2018-09-30T22:26:36.354Z,2.33
2018-09-30T22:29:04.558Z,2.27
2018-09-30T22:31:32.795Z,2.70
2018-09-30T22:34:01.008Z,2.70
2018-09-30T22:36:29.166Z,2.40
2018-09-30T22:38:57.379Z,2.65
2018-09-30T22:41:25.615Z,2.40
2018-09-30T22:43:53.799Z,2.30
2018-09-30T22:46:21.990Z,2.60
2018-09-30T22:48:50.158Z,2.10
2018-09-30T22:51:18.408Z,2.90
2018-09-30T22:53:46.695Z,2.60
2018-09-30T22:56:14.899Z,2.20
2018-09-30T22:58:43.067Z,2.17
2018-09-30T23:01:11.268Z,2.87
2018-09-30T23:03:39.523Z,2.40
2018-09-30T23:06:07.989Z,2.70
2018-09-30T23:08:36.193Z,2.50
2018-09-30T23:11:04.390Z,2.67
2018-09-30T23:13:32.616Z,2.60
2018-09-30T23:16:00.846Z,2.40
2018-09-30T23:18:29.063Z,2.10
2018-09-30T23:20:57.271Z,2.70
2018-09-30T23:23:25.432Z,2.67
2018-09-30T23:25:53.679Z,2.57
2018-09-30T23:28:21.912Z,3.12
2018-09-30T23:30:50.136Z,2.80
2018-09-30T23:33:18.348Z,2.50
2018-09-30T23:35:46.554Z,2.90
2018-09-30T23:38:14.788Z,2.80
2018-09-30T23:40:42.991Z,2.45
2018-09-30T23:43:11.207Z,2.27
2018-09-30T23:45:40.282Z,2.40
2018-09-30T23:48:08.469Z,2.70
2018-09-30T23:50:36.680Z,1.97
2018-09-30T23:53:04.913Z,2.30
2018-09-30T23:55:33.098Z,2.37
2018-09-30T23:58:07.505Z,2.08
